createdAt,value
2022-12-12T00:29:52.888Z,70.16
2022-12-12T00:32:20.703Z,70.62
2022-12-12T00:34:48.499Z,70.63
2022-12-12T00:37:16.672Z,70.31
2022-12-12T00:39:46.424Z,70.67
2022-12-12T00:42:14.734Z,70.46
2022-12-12T00:44:42.814Z,70.18
2022-12-12T00:47:12.076Z,70.44
2022-12-12T00:49:40.046Z,70.39
2022-12-12T00:52:07.960Z,70.42
2022-12-12T00:54:36.107Z,70.61
2022-12-12T00:57:04.161Z,70.39
2022-12-12T00:59:32.454Z,70.50
2022-12-12T01:02:00.321Z,70.72
2022-12-12T01:04:29.632Z,70.62
2022-12-12T01:06:57.342Z,70.46
2022-12-12T01:09:25.092Z,70.32
2022-12-12T01:11:53.067Z,70.01
2022-12-12T01:14:20.805Z,70.11
2022-12-12T01:16:48.579Z,70.12
2022-12-12T01:19:16.372Z,70.11
2022-12-12T01:21:45.477Z,69.91
2022-12-12T01:24:13.179Z,69.85
2022-12-12T01:26:41.705Z,70.43
2022-12-12T01:29:09.415Z,69.89
2022-12-12T01:31:37.247Z,70.27
2022-12-12T01:34:05.101Z,69.73
2022-12-12T01:36:32.786Z,69.92
2022-12-12T01:39:02.822Z,70.12
2022-12-12T01:41:30.959Z,69.73
2022-12-12T01:44:01.775Z,70.10
2022-12-12T01:46:42.943Z,69.85
2022-12-12T01:49:16.675Z,70.27
2022-12-12T01:51:46.293Z,70.02
2022-12-12T01:54:19.951Z,70.13
2022-12-12T01:56:48.887Z,70.00
2022-12-12T01:59:20.066Z,69.90
2022-12-12T02:01:48.237Z,70.50
2022-12-12T02:04:16.420Z,70.12
2022-12-12T02:06:44.780Z,70.06
2022-12-12T02:09:17.039Z,70.07
2022-12-12T02:11:47.793Z,70.60
2022-12-12T02:14:17.962Z,70.37
2022-12-12T02:16:58.028Z,70.10
2022-12-12T02:19:57.867Z,70.04
2022-12-12T02:22:44.407Z,69.91
2022-12-12T02:25:38.711Z,69.68
2022-12-12T02:28:35.765Z,69.89
2022-12-12T02:31:16.467Z,70.19
2022-12-12T02:33:54.295Z,70.45
2022-12-12T02:36:33.052Z,70.48
2022-12-12T02:39:07.983Z,70.47
2022-12-12T02:41:40.252Z,70.27
2022-12-12T02:44:17.821Z,70.56
2022-12-12T02:46:53.969Z,70.21
2022-12-12T02:49:26.486Z,70.65
2022-12-12T02:51:55.959Z,70.29
2022-12-12T02:54:24.937Z,70.43
2022-12-12T02:56:55.683Z,70.40
2022-12-12T02:59:27.889Z,70.41
2022-12-12T03:02:29.283Z,70.11
2022-12-12T03:05:29.871Z,70.45
2022-12-12T03:08:08.583Z,70.51
2022-12-12T03:10:50.205Z,70.29
2022-12-12T03:13:33.441Z,70.71
2022-12-12T03:16:14.482Z,70.71
2022-12-12T03:18:51.756Z,70.30
2022-12-12T03:21:26.722Z,70.76
2022-12-12T03:24:01.006Z,70.36
2022-12-12T03:26:33.406Z,70.56
2022-12-12T03:29:07.273Z,70.38
2022-12-12T03:31:43.130Z,70.15
2022-12-12T03:34:16.256Z,70.30
2022-12-12T03:36:54.119Z,70.14
2022-12-12T03:39:30.026Z,70.32
2022-12-12T03:42:03.704Z,69.98
2022-12-12T03:44:41.421Z,70.31
2022-12-12T03:47:14.210Z,70.11
2022-12-12T03:49:48.832Z,70.47
2022-12-12T03:52:25.291Z,70.02
2022-12-12T03:54:57.328Z,70.45
2022-12-12T03:57:46.723Z,70.11
2022-12-12T04:00:17.160Z,70.33
2022-12-12T04:02:52.663Z,70.07
2022-12-12T04:05:24.910Z,69.93
2022-12-12T04:07:59.916Z,70.07
2022-12-12T04:10:51.833Z,70.34
2022-12-12T04:13:32.239Z,70.44
2022-12-12T04:16:05.143Z,70.21
2022-12-12T04:18:46.795Z,70.50
2022-12-12T04:21:44.842Z,70.05
2022-12-12T04:24:21.903Z,70.27
2022-12-12T04:26:55.603Z,69.90
2022-12-12T04:29:29.956Z,70.13
2022-12-12T04:32:03.408Z,70.61
2022-12-12T04:34:42.000Z,70.01
2022-12-12T04:37:15.634Z,70.33
2022-12-12T04:39:47.681Z,70.00
2022-12-12T04:42:21.424Z,70.39
2022-12-12T04:44:53.515Z,70.19
2022-12-12T04:47:22.901Z,69.96
2022-12-12T04:49:53.937Z,69.98
2022-12-12T04:52:24.737Z,70.05
2022-12-12T04:54:59.753Z,70.23
2022-12-12T04:57:33.311Z,70.41
2022-12-12T05:00:01.773Z,69.97
2022-12-12T05:02:38.740Z,70.54
2022-12-12T05:05:11.345Z,70.58
2022-12-12T05:07:42.301Z,70.24
2022-12-12T05:10:15.457Z,70.27
2022-12-12T05:12:45.399Z,70.39
2022-12-12T05:15:15.059Z,70.73
2022-12-12T05:17:47.279Z,70.63
2022-12-12T05:20:16.423Z,70.48
2022-12-12T05:22:44.384Z,70.73
2022-12-12T05:25:14.369Z,70.27
2022-12-12T05:27:42.801Z,70.37
2022-12-12T05:30:12.123Z,70.93
2022-12-12T05:32:39.931Z,70.72
2022-12-12T05:35:09.392Z,70.78
2022-12-12T05:37:37.559Z,70.20
2022-12-12T05:40:07.978Z,70.44
2022-12-12T05:42:37.138Z,70.75
2022-12-12T05:45:06.197Z,70.60
2022-12-12T05:47:34.034Z,70.57
2022-12-12T05:50:02.503Z,70.39
2022-12-12T05:52:30.210Z,70.74
2022-12-12T05:54:58.012Z,70.40
2022-12-12T05:57:27.073Z,70.56
2022-12-12T05:59:57.046Z,70.94
2022-12-12T06:02:25.336Z,70.25
2022-12-12T06:04:55.141Z,70.42
2022-12-12T06:07:22.853Z,70.17
2022-12-12T06:09:50.580Z,70.27
2022-12-12T06:12:18.396Z,70.25
2022-12-12T06:14:53.065Z,70.09
2022-12-12T06:17:27.132Z,70.29
2022-12-12T06:19:59.923Z,70.36
2022-12-12T06:22:28.659Z,70.73
2022-12-12T06:24:57.752Z,70.71
2022-12-12T06:27:25.453Z,70.40
2022-12-12T06:30:11.603Z,70.77
2022-12-12T06:32:42.732Z,70.50
2022-12-12T06:35:12.947Z,70.20
2022-12-12T06:46:51.384Z,70.14
2022-12-12T06:49:20.857Z,70.96
2022-12-12T06:51:51.628Z,71.15
2022-12-12T06:54:20.599Z,70.75
2022-12-12T06:56:48.940Z,71.07
2022-12-12T06:59:17.651Z,70.51
2022-12-12T07:01:45.975Z,70.73
2022-12-12T07:04:14.663Z,70.44
2022-12-12T07:06:44.109Z,70.63
2022-12-12T07:09:11.969Z,71.01
2022-12-12T07:11:41.444Z,70.76
2022-12-12T07:14:09.358Z,70.81
2022-12-12T07:16:37.156Z,70.98
2022-12-12T07:19:05.181Z,70.41
2022-12-12T07:21:32.873Z,70.72
2022-12-12T11:09:48.330Z,45.18
2022-12-12T11:12:18.340Z,45.44
2022-12-12T11:14:50.274Z,45.84
2022-12-12T12:35:14.487Z,47.18
2022-12-12T12:37:53.742Z,47.71
2022-12-12T12:40:34.491Z,47.81
2022-12-12T12:43:18.050Z,48.16
2022-12-12T12:45:50.259Z,48.08
2022-12-12T12:48:22.547Z,47.57
2022-12-12T12:50:56.600Z,47.31
2022-12-12T12:53:33.602Z,47.51
2022-12-12T12:56:09.871Z,47.00
2022-12-12T12:58:45.498Z,46.61
2022-12-12T13:01:17.359Z,46.17
2022-12-12T13:03:51.127Z,46.82
2022-12-12T13:06:24.413Z,48.02
2022-12-12T13:08:58.903Z,48.71
2022-12-12T13:11:33.113Z,49.13
2022-12-12T13:14:14.386Z,49.61
2022-12-12T13:16:44.229Z,50.28
2022-12-12T13:19:16.346Z,51.61
2022-12-12T13:21:51.283Z,53.01
2022-12-12T13:24:27.402Z,53.22
2022-12-12T13:27:02.698Z,53.70
2022-12-12T13:29:41.065Z,54.09
2022-12-12T13:32:34.197Z,54.69
2022-12-12T13:35:07.828Z,54.79
2022-12-12T13:37:44.019Z,55.02
2022-12-12T13:40:24.190Z,55.43
2022-12-12T13:42:54.790Z,55.27
2022-12-12T13:45:45.604Z,55.11
2022-12-12T13:48:41.423Z,55.50
2022-12-12T13:57:34.554Z,57.21
2022-12-12T14:00:23.466Z,57.67
2022-12-12T14:09:05.136Z,58.08
2022-12-12T14:11:37.220Z,58.45
2022-12-12T14:14:23.120Z,58.21
2022-12-12T14:16:56.444Z,58.43
2022-12-12T14:19:36.451Z,58.69
2022-12-12T14:22:05.194Z,58.92
2022-12-12T14:24:56.683Z,58.99
2022-12-12T14:28:03.338Z,59.00
2022-12-12T14:30:44.701Z,59.52
2022-12-12T14:33:35.525Z,59.89
2022-12-12T14:36:10.976Z,60.72
2022-12-12T14:38:45.308Z,60.93
2022-12-12T14:41:17.853Z,61.16
2022-12-12T14:44:35.626Z,61.43
2022-12-12T14:46:42.281Z,61.78
2022-12-12T14:49:15.330Z,61.71
2022-12-12T14:51:44.972Z,62.17
2022-12-12T14:54:17.615Z,62.60
2022-12-12T14:56:52.980Z,63.02
2022-12-12T14:59:24.378Z,62.65
2022-12-12T15:01:54.621Z,63.43
2022-12-12T15:04:25.488Z,63.29
2022-12-12T15:06:54.021Z,63.83
2022-12-12T15:09:29.189Z,64.07
2022-12-12T15:12:13.740Z,64.42
2022-12-12T15:14:52.955Z,64.61
2022-12-12T15:17:23.684Z,64.60
2022-12-12T15:19:54.338Z,65.23
2022-12-12T15:22:25.041Z,65.29
2022-12-12T15:24:53.689Z,65.34
2022-12-12T15:27:26.206Z,65.77
2022-12-12T15:29:54.608Z,65.65
2022-12-12T15:32:24.702Z,66.15
2022-12-12T15:35:02.479Z,66.04
2022-12-12T15:37:32.869Z,66.02
2022-12-12T15:40:17.511Z,65.79
2022-12-12T15:42:51.449Z,66.72
2022-12-12T15:45:24.885Z,66.53
2022-12-12T15:47:54.328Z,66.82
2022-12-12T15:50:24.253Z,66.96
2022-12-12T15:53:05.472Z,67.16
2022-12-12T15:55:33.974Z,67.25
2022-12-12T15:58:03.091Z,66.95
2022-12-12T16:00:37.841Z,67.08
2022-12-12T16:03:20.728Z,67.24
2022-12-12T16:06:04.211Z,67.32
2022-12-12T16:09:01.842Z,67.62
2022-12-12T16:11:37.181Z,67.85
2022-12-12T16:14:07.147Z,68.23
2022-12-12T16:16:45.098Z,68.27
2022-12-12T16:19:35.050Z,68.19
2022-12-12T16:22:05.986Z,68.23
2022-12-12T16:24:33.838Z,68.63
2022-12-12T16:27:02.184Z,68.54
2022-12-12T16:29:31.417Z,68.55
2022-12-12T16:31:59.296Z,68.46
2022-12-12T16:34:27.011Z,68.55
2022-12-12T16:36:54.737Z,69.14
2022-12-12T16:39:22.991Z,68.74
2022-12-12T16:41:50.744Z,68.96
2022-12-12T16:44:18.505Z,68.71
2022-12-12T16:46:47.795Z,69.43
2022-12-12T16:49:15.849Z,69.12
2022-12-12T16:51:43.663Z,69.12
2022-12-12T16:54:16.353Z,69.74
2022-12-12T16:56:44.251Z,69.47
2022-12-12T16:59:11.946Z,69.44
2022-12-12T17:01:41.054Z,69.18
2022-12-12T17:04:19.334Z,69.50
2022-12-12T17:06:47.079Z,69.69
2022-12-12T17:09:14.823Z,70.01
2022-12-12T17:11:42.611Z,69.68
2022-12-12T17:14:22.555Z,69.75
2022-12-12T17:16:50.849Z,69.71
2022-12-12T17:19:22.952Z,69.85
2022-12-12T17:21:50.814Z,70.17
2022-12-12T17:24:18.556Z,69.72
2022-12-12T17:26:46.286Z,69.85
2022-12-12T17:29:14.127Z,70.41
2022-12-12T17:31:42.184Z,70.15
2022-12-12T17:34:11.051Z,69.83
2022-12-12T17:36:40.144Z,69.93
2022-12-12T17:39:07.831Z,70.22
2022-12-12T17:41:35.687Z,70.41
2022-12-12T17:44:03.471Z,70.21
2022-12-12T17:46:31.204Z,70.21
2022-12-12T17:49:01.762Z,70.74
2022-12-12T17:51:29.756Z,70.32
2022-12-12T17:54:00.064Z,70.45
2022-12-12T17:56:28.406Z,70.33
2022-12-12T17:58:56.210Z,70.59
2022-12-12T18:01:26.118Z,70.65
2022-12-12T18:03:54.826Z,70.65
2022-12-12T18:06:23.796Z,70.81
2022-12-12T18:08:54.433Z,70.69
2022-12-12T18:11:27.496Z,70.61
2022-12-12T18:13:57.682Z,71.10
2022-12-12T18:16:29.279Z,70.58
2022-12-12T18:18:57.857Z,70.59
2022-12-12T18:24:19.232Z,71.31
2022-12-12T18:26:52.678Z,71.36
2022-12-12T18:29:21.472Z,71.40
2022-12-12T18:31:49.381Z,71.27
2022-12-12T18:34:17.460Z,71.02
2022-12-12T18:36:45.194Z,71.33
2022-12-12T18:39:12.921Z,71.21
2022-12-12T18:41:40.733Z,71.42
2022-12-12T18:44:13.266Z,70.86
2022-12-12T18:46:43.360Z,71.57
2022-12-12T18:49:14.876Z,71.51
2022-12-12T18:51:43.172Z,71.54
2022-12-12T18:54:15.412Z,71.56
2022-12-12T18:56:44.681Z,71.48
2022-12-12T18:59:14.656Z,71.44
2022-12-12T19:01:42.669Z,71.03
2022-12-12T19:04:13.417Z,71.37
2022-12-12T19:06:43.462Z,71.52
2022-12-12T19:09:15.084Z,71.19
2022-12-12T19:11:43.850Z,71.32
2022-12-12T19:14:15.045Z,71.69
2022-12-12T19:16:43.109Z,71.56
2022-12-12T19:19:12.060Z,71.80
2022-12-12T19:21:42.002Z,71.47
2022-12-12T19:24:14.470Z,71.27
2022-12-12T19:26:44.511Z,71.38
2022-12-12T19:29:16.699Z,71.47
2022-12-12T19:31:45.615Z,71.80
2022-12-12T19:34:17.325Z,71.28
2022-12-12T19:36:45.755Z,71.92
2022-12-12T19:39:14.222Z,72.10
2022-12-12T19:41:42.405Z,71.82
2022-12-12T19:44:14.740Z,71.58
2022-12-12T19:46:45.491Z,71.60
2022-12-12T19:49:15.623Z,72.29
2022-12-12T19:51:44.857Z,72.05
2022-12-12T19:54:15.400Z,71.69
2022-12-12T19:56:43.453Z,71.88
2022-12-12T19:59:14.853Z,71.57
2022-12-12T20:01:43.676Z,72.17
2022-12-12T20:04:16.749Z,72.08
2022-12-12T20:06:46.254Z,72.37
2022-12-12T20:09:15.458Z,72.26
2022-12-12T20:11:45.162Z,71.91
2022-12-12T20:14:15.357Z,71.93
2022-12-12T20:16:43.384Z,71.87
2022-12-12T20:19:11.932Z,72.49
2022-12-12T20:24:33.176Z,71.91
2022-12-12T20:27:03.484Z,72.29
2022-12-12T20:29:33.580Z,72.63
2022-12-12T20:32:12.540Z,72.58
2022-12-12T20:34:45.506Z,72.36
2022-12-12T20:37:18.277Z,72.16
2022-12-12T20:39:47.900Z,72.36
2022-12-12T20:42:15.610Z,72.64
2022-12-12T20:44:44.729Z,72.54
2022-12-12T20:47:18.150Z,72.71
2022-12-12T20:49:48.102Z,72.33
2022-12-12T20:52:15.837Z,72.59
2022-12-12T20:54:43.649Z,73.08
2022-12-12T20:57:11.565Z,72.84
2022-12-12T20:59:39.303Z,72.99
2022-12-12T21:02:08.462Z,72.93
2022-12-12T21:04:36.513Z,73.02
2022-12-12T21:07:04.333Z,72.50
2022-12-12T21:09:32.083Z,72.47
2022-12-12T21:12:00.091Z,72.71
2022-12-12T21:14:30.636Z,72.42
2022-12-12T21:16:58.417Z,72.86
2022-12-12T21:19:27.651Z,73.02
2022-12-12T21:21:55.561Z,72.84
2022-12-12T21:24:23.720Z,72.90
2022-12-12T21:26:51.706Z,72.73
2022-12-12T21:29:19.457Z,72.78
2022-12-12T21:31:51.467Z,72.57
2022-12-12T21:34:21.216Z,72.93
2022-12-12T21:36:52.800Z,73.23
2022-12-12T21:39:21.865Z,72.72
2022-12-12T21:41:51.054Z,73.22
2022-12-12T21:44:18.832Z,73.21
2022-12-12T21:46:46.613Z,72.60
2022-12-12T21:49:34.114Z,72.73
2022-12-12T21:52:05.416Z,72.47
2022-12-12T21:54:33.777Z,73.07
2022-12-12T21:57:01.827Z,72.74
2022-12-12T21:59:31.026Z,72.82
2022-12-12T22:02:00.745Z,72.66
2022-12-12T22:04:29.094Z,72.84
2022-12-12T22:06:57.933Z,73.07
2022-12-12T22:09:28.083Z,72.69
2022-12-12T22:12:03.986Z,73.18
2022-12-12T22:14:33.746Z,73.27
2022-12-12T22:17:01.785Z,72.43
2022-12-12T22:19:29.898Z,72.51
2022-12-12T22:21:57.669Z,72.81
2022-12-12T22:24:27.230Z,72.72
2022-12-12T22:26:55.003Z,73.20
2022-12-12T22:29:22.786Z,72.48
2022-12-12T22:31:52.086Z,72.84
2022-12-12T22:34:22.477Z,72.77
2022-12-12T22:36:50.406Z,72.49
2022-12-12T22:39:20.898Z,73.04
2022-12-12T22:41:51.001Z,73.09
2022-12-12T22:44:20.519Z,73.15
2022-12-12T22:46:52.460Z,73.20
2022-12-12T22:49:22.437Z,72.63
2022-12-12T22:51:50.656Z,72.52
2022-12-12T22:54:19.226Z,72.80
2022-12-12T22:56:47.233Z,72.58
2022-12-12T22:59:16.493Z,73.18
2022-12-12T23:01:44.596Z,72.93
2022-12-12T23:04:14.034Z,72.82
2022-12-12T23:06:42.804Z,73.08
2022-12-12T23:09:15.207Z,73.26
2022-12-12T23:11:43.830Z,73.42
2022-12-12T23:14:14.704Z,73.34
2022-12-12T23:16:44.441Z,73.22
2022-12-12T23:19:15.141Z,73.29
2022-12-12T23:21:43.308Z,72.67
2022-12-12T23:24:11.438Z,72.74
2022-12-12T23:26:39.358Z,73.00
2022-12-12T23:29:09.212Z,73.09
2022-12-12T23:31:39.442Z,72.51
2022-12-12T23:34:10.932Z,72.80
2022-12-12T23:36:38.877Z,73.03
2022-12-12T23:39:08.785Z,72.98
2022-12-12T23:41:37.020Z,73.10
2022-12-12T23:44:05.373Z,73.37
2022-12-12T23:46:33.669Z,73.28
2022-12-12T23:49:05.637Z,73.35
2022-12-12T23:51:36.506Z,73.22
2022-12-12T23:54:06.417Z,73.42
2022-12-12T23:56:34.455Z,73.35
2022-12-12T23:59:02.215Z,73.08
